createdAt,value
2018-01-19T00:00:35.769Z,0
2018-01-19T00:01:36.014Z,0
2018-01-19T00:02:36.010Z,0
2018-01-19T00:03:35.754Z,0
2018-01-19T00:04:35.750Z,0
2018-01-19T00:05:35.988Z,0
2018-01-19T00:06:35.726Z,0
2018-01-19T00:07:36.216Z,0
2018-01-19T00:08:36.218Z,0
2018-01-19T00:09:36.233Z,0
2018-01-19T00:10:35.951Z,0
2018-01-19T00:11:35.957Z,0
2018-01-19T00:12:35.933Z,0
2018-01-19T00:13:35.669Z,0
2018-01-19T00:14:35.668Z,0
2018-01-19T00:15:35.416Z,0
2018-01-19T00:16:36.166Z,0
2018-01-19T00:17:35.900Z,0
2018-01-19T00:18:35.880Z,0
2018-01-19T00:19:36.129Z,0
2018-01-19T00:20:35.676Z,0
2018-01-19T00:21:36.158Z,0
2018-01-19T00:22:35.900Z,0
2018-01-19T00:23:35.864Z,0
2018-01-19T00:24:36.110Z,0
2018-01-19T00:25:35.827Z,0
2018-01-19T00:26:35.829Z,0
2018-01-19T00:27:37.418Z,0
2018-01-19T00:28:35.801Z,0
2018-01-19T00:29:36.053Z,0
2018-01-19T00:30:35.791Z,0
2018-01-19T00:31:35.532Z,0
2018-01-19T00:32:35.782Z,0
2018-01-19T00:33:35.784Z,0
2018-01-19T00:34:35.759Z,0
2018-01-19T00:35:35.512Z,0
2018-01-19T00:36:35.744Z,0
2018-01-19T00:37:35.743Z,0
2018-01-19T00:38:35.477Z,0
2018-01-19T00:39:35.483Z,0
2018-01-19T00:40:35.720Z,0
2018-01-19T00:41:35.980Z,0
2018-01-19T00:42:35.965Z,0
2018-01-19T00:43:35.952Z,0
2018-01-19T00:44:35.192Z,0
2018-01-19T00:45:35.690Z,0
2018-01-19T00:46:35.691Z,0
2018-01-19T00:47:35.914Z,0
2018-01-19T00:48:35.928Z,0
2018-01-19T00:49:35.696Z,0
2018-01-19T00:50:35.648Z,0
2018-01-19T00:51:35.884Z,0
2018-01-19T00:52:35.944Z,0
2018-01-19T00:53:35.692Z,0
2018-01-19T00:54:35.380Z,0
2018-01-19T00:55:35.874Z,0
2018-01-19T00:56:35.360Z,0
2018-01-19T00:57:36.650Z,0
2018-01-19T00:58:35.880Z,0
2018-01-19T00:59:35.586Z,0
2018-01-19T01:00:35.571Z,0
2018-01-19T01:01:35.371Z,0
2018-01-19T01:02:35.567Z,0
2018-01-19T01:03:35.828Z,0
2018-01-19T01:04:35.797Z,0
2018-01-19T01:05:35.798Z,0
2018-01-19T01:06:35.292Z,0
2018-01-19T01:07:35.784Z,0
2018-01-19T01:08:35.769Z,0
2018-01-19T01:09:35.521Z,0
2018-01-19T01:10:35.766Z,0
2018-01-19T01:11:35.246Z,0
2018-01-19T01:12:35.488Z,0
2018-01-19T01:13:35.234Z,0
2018-01-19T01:14:35.481Z,0
2018-01-19T01:15:35.482Z,0
2018-01-19T01:16:35.214Z,0
2018-01-19T01:17:35.713Z,0
2018-01-19T01:18:35.254Z,0
2018-01-19T01:19:35.467Z,0
2018-01-19T01:20:35.477Z,0
2018-01-19T01:21:34.934Z,0
2018-01-19T01:22:35.432Z,0
2018-01-19T01:23:35.669Z,0
2018-01-19T01:24:35.726Z,0
2018-01-19T01:25:35.410Z,0
2018-01-19T01:26:35.150Z,0
2018-01-19T01:27:35.396Z,0
2018-01-19T01:28:35.450Z,0
2018-01-19T01:29:35.388Z,0
2018-01-19T01:30:35.378Z,0
2018-01-19T01:31:35.379Z,0
2018-01-19T01:32:35.619Z,0
2018-01-19T01:33:35.605Z,0
2018-01-19T01:34:35.095Z,0
2018-01-19T01:35:35.104Z,0
2018-01-19T01:36:35.344Z,0
2018-01-19T01:37:35.339Z,0
2018-01-19T01:38:35.324Z,0
2018-01-19T01:39:35.313Z,0
2018-01-19T01:40:34.812Z,0
2018-01-19T01:41:35.298Z,0
2018-01-19T01:42:35.297Z,0
2018-01-19T01:43:35.293Z,0
2018-01-19T01:44:35.049Z,0
2018-01-19T01:45:35.020Z,0
2018-01-19T01:46:35.014Z,0
2018-01-19T01:47:35.519Z,0
2018-01-19T01:48:35.264Z,0
2018-01-19T01:49:35.247Z,0
2018-01-19T01:50:34.742Z,0
2018-01-19T01:51:34.727Z,0
2018-01-19T01:52:35.245Z,0
2018-01-19T01:53:34.968Z,0
2018-01-19T01:54:35.488Z,0
2018-01-19T01:55:35.218Z,0
2018-01-19T01:56:35.252Z,0
2018-01-19T01:57:36.797Z,0
2018-01-19T01:58:34.684Z,0
2018-01-19T01:59:35.450Z,0
2018-01-19T02:00:35.432Z,0
2018-01-19T02:01:35.186Z,0
2018-01-19T02:02:35.165Z,0
2018-01-19T02:03:34.901Z,0
2018-01-19T02:04:35.148Z,0
2018-01-19T02:05:35.149Z,0
2018-01-19T02:06:35.139Z,0
2018-01-19T02:07:35.371Z,0
2018-01-19T02:08:34.865Z,0
2018-01-19T02:09:35.113Z,0
2018-01-19T02:10:35.350Z,0
2018-01-19T02:11:35.102Z,0
2018-01-19T02:12:35.103Z,0
2018-01-19T02:13:35.086Z,0
2018-01-19T02:14:35.083Z,0
2018-01-19T02:15:35.063Z,0
2018-01-19T02:16:35.069Z,0
2018-01-19T02:17:35.049Z,0
2018-01-19T02:18:34.792Z,0
2018-01-19T02:19:35.033Z,0
2018-01-19T02:20:34.529Z,0
2018-01-19T02:21:35.026Z,0
2018-01-19T02:22:35.012Z,0
2018-01-19T02:23:35.268Z,0
2018-01-19T02:24:35.267Z,0
2018-01-19T02:25:34.991Z,0
2018-01-19T02:26:35.235Z,0
2018-01-19T02:27:34.987Z,0
2018-01-19T02:28:35.226Z,0
2018-01-19T02:29:34.969Z,0
2018-01-19T02:30:34.958Z,0
2018-01-19T02:31:34.943Z,0
2018-01-19T02:32:35.193Z,0
2018-01-19T02:33:34.962Z,0
2018-01-19T02:34:35.181Z,0
2018-01-19T02:35:34.673Z,0
2018-01-19T02:36:34.661Z,0
2018-01-19T02:37:35.168Z,0
2018-01-19T02:38:35.158Z,0
2018-01-19T02:39:34.883Z,0
2018-01-19T02:40:35.125Z,0
2018-01-19T02:41:34.620Z,0
2018-01-19T02:42:35.115Z,0
2018-01-19T02:43:35.115Z,0
2018-01-19T02:44:34.602Z,0
2018-01-19T02:45:34.840Z,0
2018-01-19T02:46:35.103Z,0
2018-01-19T02:47:34.822Z,0
2018-01-19T02:48:34.566Z,0
2018-01-19T02:49:34.808Z,0
2018-01-19T02:50:35.068Z,0
2018-01-19T02:51:35.043Z,0
2018-01-19T02:52:34.552Z,0
2018-01-19T02:53:34.784Z,0
2018-01-19T02:54:34.765Z,0
2018-01-19T02:55:35.021Z,0
2018-01-19T02:56:34.499Z,0
2018-01-19T02:57:34.993Z,0
2018-01-19T02:58:35.048Z,0
2018-01-19T02:59:34.974Z,0
2018-01-19T03:00:34.717Z,0
2018-01-19T03:01:34.960Z,0
2018-01-19T03:02:34.699Z,0
2018-01-19T03:03:34.700Z,0
2018-01-19T03:04:34.515Z,0
2018-01-19T03:05:34.957Z,0
2018-01-19T03:06:34.434Z,0
2018-01-19T03:07:34.670Z,0
2018-01-19T03:08:34.654Z,0
2018-01-19T03:09:34.403Z,0
2018-01-19T03:10:34.651Z,0
2018-01-19T03:11:34.883Z,0
2018-01-19T03:12:34.635Z,0
2018-01-19T03:13:34.635Z,0
2018-01-19T03:14:34.609Z,0
2018-01-19T03:15:34.857Z,0
2018-01-19T03:16:34.849Z,0
2018-01-19T03:17:34.605Z,0
2018-01-19T03:18:34.852Z,0
2018-01-19T03:19:34.609Z,0
2018-01-19T03:20:34.572Z,0
2018-01-19T03:21:34.568Z,0
2018-01-19T03:22:34.806Z,0
2018-01-19T03:23:34.548Z,0
2018-01-19T03:24:34.291Z,0
2018-01-19T03:25:34.585Z,0
2018-01-19T03:26:34.546Z,0
2018-01-19T03:27:34.282Z,0
2018-01-19T03:28:35.011Z,0
2018-01-19T03:29:34.255Z,0
2018-01-19T03:30:34.554Z,0
2018-01-19T03:31:34.760Z,0
2018-01-19T03:32:34.490Z,0
2018-01-19T03:33:35.324Z,0
2018-01-19T03:34:33.961Z,0
2018-01-19T03:35:34.475Z,0
2018-01-19T03:36:34.699Z,0
2018-01-19T03:37:34.446Z,0
2018-01-19T03:38:34.434Z,0
2018-01-19T03:39:34.180Z,0
2018-01-19T03:40:34.429Z,0
2018-01-19T03:41:34.424Z,0
2018-01-19T03:42:34.557Z,0
2018-01-19T03:43:34.394Z,0
2018-01-19T03:44:34.137Z,0
2018-01-19T03:45:34.387Z,0
2018-01-19T03:46:34.381Z,0
2018-01-19T03:47:34.634Z,0
2018-01-19T03:48:34.120Z,0
2018-01-19T03:49:34.364Z,0
2018-01-19T03:50:34.357Z,0
2018-01-19T03:51:34.603Z,0
2018-01-19T03:52:34.080Z,0
2018-01-19T03:53:34.589Z,0
2018-01-19T03:54:34.566Z,0
2018-01-19T03:55:34.565Z,0
2018-01-19T03:56:34.312Z,0
2018-01-19T03:57:34.299Z,0
2018-01-19T03:58:35.344Z,0
2018-01-19T03:59:34.275Z,0
2018-01-19T04:00:34.524Z,0
2018-01-19T04:01:33.768Z,0
2018-01-19T04:02:34.252Z,0
2018-01-19T04:03:34.508Z,0
2018-01-19T04:04:34.510Z,0
2018-01-19T04:05:34.249Z,0
2018-01-19T04:06:34.226Z,0
2018-01-19T04:07:34.471Z,0
2018-01-19T04:08:34.227Z,0
2018-01-19T04:09:34.207Z,0
2018-01-19T04:10:34.208Z,0
2018-01-19T04:11:34.208Z,0
2018-01-19T04:12:34.177Z,0
2018-01-19T04:13:34.172Z,0
2018-01-19T04:14:34.416Z,0
2018-01-19T04:15:34.153Z,0
2018-01-19T04:16:33.894Z,0
2018-01-19T04:17:34.387Z,0
2018-01-19T04:18:33.880Z,0
2018-01-19T04:19:34.386Z,0
2018-01-19T04:20:34.120Z,0
2018-01-19T04:21:34.104Z,0
2018-01-19T04:22:34.358Z,0
2018-01-19T04:23:34.171Z,0
2018-01-19T04:24:34.098Z,0
2018-01-19T04:25:34.088Z,0
2018-01-19T04:26:34.061Z,0
2018-01-19T04:27:34.065Z,0
2018-01-19T04:28:33.817Z,0
2018-01-19T04:29:34.300Z,0
2018-01-19T04:30:34.040Z,0
2018-01-19T04:31:34.026Z,0
2018-01-19T04:32:34.016Z,0
2018-01-19T04:33:34.267Z,0
2018-01-19T04:34:34.253Z,0
2018-01-19T04:35:34.241Z,0
2018-01-19T04:36:33.740Z,0
2018-01-19T04:37:33.981Z,0
2018-01-19T04:38:34.225Z,0
2018-01-19T04:39:34.210Z,0
2018-01-19T04:40:33.701Z,0
2018-01-19T04:41:33.699Z,0
2018-01-19T04:42:33.682Z,0
2018-01-19T04:43:33.678Z,0
2018-01-19T04:44:33.417Z,0
2018-01-19T04:45:33.412Z,0
2018-01-19T04:46:33.900Z,0
2018-01-19T04:47:34.143Z,0
2018-01-19T04:48:33.891Z,0
2018-01-19T04:49:34.125Z,0
2018-01-19T04:50:34.136Z,0
2018-01-19T04:51:33.613Z,0
2018-01-19T04:52:33.850Z,0
2018-01-19T04:53:33.584Z,0
2018-01-19T04:54:33.828Z,0
2018-01-19T04:55:34.073Z,0
2018-01-19T04:56:33.565Z,0
2018-01-19T04:57:33.818Z,0
2018-01-19T04:58:33.789Z,0
2018-01-19T04:59:34.046Z,0
2018-01-19T05:00:34.031Z,0
2018-01-19T05:01:34.024Z,0
2018-01-19T05:02:33.767Z,0
2018-01-19T05:03:33.757Z,0
2018-01-19T05:04:33.748Z,0
2018-01-19T05:05:33.988Z,0
2018-01-19T05:06:33.750Z,0
2018-01-19T05:07:34.003Z,0
2018-01-19T05:08:33.967Z,0
2018-01-19T05:09:33.760Z,0
2018-01-19T05:10:33.692Z,0
2018-01-19T05:11:33.436Z,0
2018-01-19T05:12:33.431Z,0
2018-01-19T05:13:33.678Z,0
2018-01-19T05:14:33.660Z,0
2018-01-19T05:15:33.653Z,0
2018-01-19T05:16:33.919Z,0
2018-01-19T05:17:33.889Z,0
2018-01-19T05:18:33.879Z,0
2018-01-19T05:19:33.866Z,0
2018-01-19T05:20:33.354Z,0
2018-01-19T05:21:33.605Z,0
2018-01-19T05:22:33.596Z,0
2018-01-19T05:23:33.395Z,0
2018-01-19T05:24:33.569Z,0
2018-01-19T05:25:34.785Z,0
2018-01-19T05:26:33.562Z,0
2018-01-19T05:27:33.795Z,0
2018-01-19T05:28:33.538Z,0
2018-01-19T05:29:33.532Z,0
2018-01-19T05:30:33.517Z,0
2018-01-19T05:31:33.258Z,0
2018-01-19T05:32:33.502Z,0
2018-01-19T05:33:33.757Z,0
2018-01-19T05:34:33.732Z,0
2018-01-19T05:35:33.508Z,0
2018-01-19T05:36:33.468Z,0
2018-01-19T05:37:33.709Z,0
2018-01-19T05:38:33.452Z,0
2018-01-19T05:39:33.446Z,0
2018-01-19T05:40:33.689Z,0
2018-01-19T05:41:33.434Z,0
2018-01-19T05:42:33.415Z,0
2018-01-19T05:43:33.463Z,0
2018-01-19T05:44:33.474Z,0
2018-01-19T05:45:33.392Z,0
2018-01-19T05:46:33.151Z,0
2018-01-19T05:47:33.403Z,0
2018-01-19T05:48:33.614Z,0
2018-01-19T05:49:33.350Z,0
2018-01-19T05:50:33.368Z,0
2018-01-19T05:51:33.339Z,0
2018-01-19T05:52:33.325Z,0
2018-01-19T05:53:33.327Z,0
2018-01-19T05:54:33.320Z,0
2018-01-19T05:55:33.556Z,0
2018-01-19T05:56:33.546Z,0
2018-01-19T05:57:33.299Z,0
2018-01-19T05:58:33.271Z,0
2018-01-19T05:59:33.269Z,0
2018-01-19T06:00:33.508Z,0
2018-01-19T06:01:33.277Z,0
2018-01-19T06:02:33.256Z,0
2018-01-19T06:03:33.503Z,0
2018-01-19T06:04:32.733Z,0
2018-01-19T06:05:33.038Z,0
2018-01-19T06:06:33.205Z,0
2018-01-19T06:07:33.463Z,0
2018-01-19T06:08:32.952Z,0
2018-01-19T06:09:33.186Z,0
2018-01-19T06:10:32.936Z,0
2018-01-19T06:11:33.164Z,0
2018-01-19T06:12:33.162Z,0
2018-01-19T06:13:33.162Z,0
2018-01-19T06:14:33.162Z,0
2018-01-19T06:15:33.148Z,0
2018-01-19T06:16:33.375Z,0
2018-01-19T06:17:32.862Z,0
2018-01-19T06:18:33.121Z,0
2018-01-19T06:19:32.855Z,0
2018-01-19T06:20:32.844Z,0
2018-01-19T06:21:33.086Z,0
2018-01-19T06:22:33.332Z,0
2018-01-19T06:23:33.105Z,0
2018-01-19T06:24:33.311Z,0
2018-01-19T06:25:32.809Z,0
2018-01-19T06:26:33.041Z,0
2018-01-19T06:27:32.769Z,0
2018-01-19T06:28:33.022Z,0
2018-01-19T06:29:33.005Z,0
2018-01-19T06:30:34.045Z,0
2018-01-19T06:31:33.244Z,0
2018-01-19T06:32:33.246Z,0
2018-01-19T06:33:32.975Z,4
2018-01-19T06:34:33.223Z,4
2018-01-19T06:35:33.013Z,4
2018-01-19T06:36:33.197Z,0
2018-01-19T06:37:33.188Z,4
2018-01-19T06:38:33.182Z,4
2018-01-19T06:39:32.925Z,0
2018-01-19T06:40:32.909Z,4
2018-01-19T06:41:32.905Z,8
2018-01-19T06:42:32.643Z,8
2018-01-19T06:43:32.882Z,8
2018-01-19T06:44:32.878Z,8
2018-01-19T06:45:32.856Z,8
2018-01-19T06:46:32.861Z,12
2018-01-19T06:47:32.858Z,12
2018-01-19T06:48:32.842Z,16
2018-01-19T06:49:32.830Z,20
2018-01-19T06:50:33.074Z,24
2018-01-19T06:51:32.568Z,24
2018-01-19T06:52:32.549Z,32
2018-01-19T06:53:32.541Z,36
2018-01-19T06:54:33.041Z,40
2018-01-19T06:55:33.032Z,48
2018-01-19T06:56:32.778Z,56
2018-01-19T06:57:32.506Z,60
2018-01-19T06:58:32.750Z,68
2018-01-19T06:59:32.491Z,76
2018-01-19T07:00:32.728Z,88
2018-01-19T07:01:32.752Z,100
2018-01-19T07:02:32.719Z,112
2018-01-19T07:03:32.460Z,128
2018-01-19T07:04:32.564Z,140
2018-01-19T07:05:32.455Z,156
2018-01-19T07:06:32.934Z,176
2018-01-19T07:07:32.419Z,196
2018-01-19T07:08:32.926Z,212
2018-01-19T07:09:32.659Z,232
2018-01-19T07:10:32.907Z,256
2018-01-19T07:11:32.886Z,280
2018-01-19T07:12:32.679Z,304
2018-01-19T07:13:32.871Z,332
2018-01-19T07:14:32.857Z,352
2018-01-19T07:15:32.418Z,380
2018-01-19T07:16:32.831Z,412
2018-01-19T07:17:32.575Z,444
2018-01-19T07:18:32.327Z,472
2018-01-19T07:19:32.831Z,504
2018-01-19T07:20:32.798Z,536
2018-01-19T07:21:32.535Z,572
2018-01-19T07:22:32.784Z,608
2018-01-19T07:23:32.274Z,648
2018-01-19T07:24:32.805Z,692
2018-01-19T07:25:32.519Z,728
2018-01-19T07:26:32.509Z,760
2018-01-19T07:27:32.482Z,784
2018-01-19T07:28:32.488Z,824
2018-01-19T07:29:32.730Z,888
2018-01-19T07:30:32.710Z,924
2018-01-19T07:31:32.462Z,940
2018-01-19T07:32:32.210Z,960
2018-01-19T07:33:32.185Z,968
2018-01-19T07:34:32.184Z,992
2018-01-19T07:35:32.427Z,1032
2018-01-19T07:36:32.405Z,1064
2018-01-19T07:37:32.648Z,1084
2018-01-19T07:38:32.391Z,1108
2018-01-19T07:39:32.378Z,1132
2018-01-19T07:40:32.119Z,1176
2018-01-19T07:41:32.361Z,1216
2018-01-19T07:42:32.610Z,1232
2018-01-19T07:43:32.095Z,1260
2018-01-19T07:44:32.590Z,1240
2018-01-19T07:45:32.346Z,1220
2018-01-19T07:46:32.067Z,1144
2018-01-19T07:47:32.309Z,1108
2018-01-19T07:48:32.060Z,1144
2018-01-19T07:49:32.058Z,1184
2018-01-19T07:50:32.284Z,1216
2018-01-19T07:51:32.024Z,1252
2018-01-19T07:52:32.263Z,1308
2018-01-19T07:53:31.789Z,1392
2018-01-19T07:54:31.996Z,1464
2018-01-19T07:55:31.986Z,1468
2018-01-19T07:56:31.989Z,1500
2018-01-19T07:57:32.222Z,1516
2018-01-19T07:58:32.210Z,1564
2018-01-19T07:59:32.210Z,1640
2018-01-19T08:00:31.940Z,1680
2018-01-19T08:01:31.930Z,1712
2018-01-19T08:02:32.189Z,1764
2018-01-19T08:03:32.174Z,1768
2018-01-19T08:04:31.653Z,1700
2018-01-19T08:05:31.895Z,1580
2018-01-19T08:06:32.137Z,1476
2018-01-19T08:07:32.131Z,1464
2018-01-19T08:08:32.123Z,1548
2018-01-19T08:09:32.369Z,1680
2018-01-19T08:10:32.112Z,1728
2018-01-19T08:11:31.848Z,1716
2018-01-19T08:12:32.366Z,1684
2018-01-19T08:13:32.356Z,1732
2018-01-19T08:14:32.327Z,1868
2018-01-19T08:15:31.883Z,1964
2018-01-19T08:16:32.070Z,1972
2018-01-19T08:17:32.070Z,2064
2018-01-19T08:18:32.040Z,2100
2018-01-19T08:19:32.036Z,2048
2018-01-19T08:20:32.283Z,2032
2018-01-19T08:21:32.022Z,2140
2018-01-19T08:22:32.018Z,2088
2018-01-19T08:23:32.008Z,2160
2018-01-19T08:24:32.007Z,2144
2018-01-19T08:25:31.990Z,2200
2018-01-19T08:26:32.242Z,2296
2018-01-19T08:27:32.226Z,2408
2018-01-19T08:28:31.476Z,2392
2018-01-19T08:29:32.205Z,2292
2018-01-19T08:30:31.955Z,2272
2018-01-19T08:31:33.442Z,2384
2018-01-19T08:32:31.930Z,2420
2018-01-19T08:33:31.932Z,2404
2018-01-19T08:34:31.939Z,2416
2018-01-19T08:35:31.914Z,2444
2018-01-19T08:37:04.015Z,2476
2018-01-19T08:37:31.648Z,2504
2018-01-19T08:38:31.899Z,2540
2018-01-19T08:39:31.627Z,2644
2018-01-19T08:40:31.872Z,2704
2018-01-19T08:41:31.616Z,2712
2018-01-19T08:42:31.358Z,2772
2018-01-19T08:43:31.910Z,2852
2018-01-19T08:44:31.856Z,2932
2018-01-19T08:45:32.095Z,3036
2018-01-19T08:46:32.085Z,3076
2018-01-19T08:47:31.573Z,3660
2018-01-19T08:48:31.561Z,2940
2018-01-19T08:49:31.810Z,2740
2018-01-19T08:50:31.798Z,2668
2018-01-19T08:51:31.850Z,2616
2018-01-19T08:52:31.802Z,2528
2018-01-19T08:53:31.797Z,2456
2018-01-19T08:54:31.818Z,2448
2018-01-19T08:55:31.762Z,2496
2018-01-19T08:56:31.508Z,2504
2018-01-19T08:57:31.743Z,2580
2018-01-19T08:58:31.988Z,3548
2018-01-19T08:59:31.992Z,3624
2018-01-19T09:00:31.488Z,3064
2018-01-19T09:01:32.778Z,3060
2018-01-19T09:02:31.707Z,3224
2018-01-19T09:03:31.721Z,3264
2018-01-19T09:04:31.703Z,4276
2018-01-19T09:05:31.692Z,3292
2018-01-19T09:06:31.709Z,3384
2018-01-19T09:07:31.675Z,3612
2018-01-19T09:08:31.671Z,3576
2018-01-19T09:09:31.673Z,3744
2018-01-19T09:10:31.662Z,4528
2018-01-19T09:11:31.659Z,4308
2018-01-19T09:12:31.649Z,4756
2018-01-19T09:13:31.392Z,4412
2018-01-19T09:14:31.872Z,4968
2018-01-19T09:15:31.389Z,5396
2018-01-19T09:16:31.672Z,5584
2018-01-19T09:17:31.610Z,5360
2018-01-19T09:18:31.607Z,5288
2018-01-19T09:19:31.089Z,5228
2018-01-19T09:20:31.852Z,5252
2018-01-19T09:21:31.830Z,3668
2018-01-19T09:22:31.571Z,3648
2018-01-19T09:23:31.322Z,3576
2018-01-19T09:24:31.576Z,3564
2018-01-19T09:25:31.299Z,3660
2018-01-19T09:26:31.549Z,3696
2018-01-19T09:27:31.789Z,3760
2018-01-19T09:28:31.776Z,3800
2018-01-19T09:29:31.775Z,3656
2018-01-19T09:30:31.764Z,3752
2018-01-19T09:31:31.512Z,3812
2018-01-19T09:32:31.765Z,3824
2018-01-19T09:33:31.502Z,3724
2018-01-19T09:34:31.484Z,3664
2018-01-19T09:35:31.484Z,3520
2018-01-19T09:36:31.484Z,3452
2018-01-19T09:37:31.727Z,3448
2018-01-19T09:38:31.210Z,3388
2018-01-19T09:39:31.454Z,3300
2018-01-19T09:40:31.445Z,3452
2018-01-19T09:41:31.709Z,3552
2018-01-19T09:42:31.181Z,3568
2018-01-19T09:43:31.434Z,3520
2018-01-19T09:44:31.509Z,3496
2018-01-19T09:45:31.412Z,3472
2018-01-19T09:46:31.148Z,3416
2018-01-19T09:47:31.671Z,3428
2018-01-19T09:48:31.411Z,3536
2018-01-19T09:49:31.133Z,3700
2018-01-19T09:50:31.409Z,3752
2018-01-19T09:51:31.630Z,3776
2018-01-19T09:52:31.364Z,4032
2018-01-19T09:53:31.603Z,4340
2018-01-19T09:54:31.604Z,4420
2018-01-19T09:55:31.597Z,4452
2018-01-19T09:56:31.340Z,4404
2018-01-19T09:57:31.334Z,4408
2018-01-19T09:58:31.316Z,4364
2018-01-19T09:59:31.331Z,4532
2018-01-19T10:00:31.303Z,4680
2018-01-19T10:01:31.062Z,4696
2018-01-19T10:02:31.557Z,4488
2018-01-19T10:03:31.541Z,4356
2018-01-19T10:04:31.537Z,4304
2018-01-19T10:05:31.519Z,4484
2018-01-19T10:06:30.789Z,4544
2018-01-19T10:07:31.263Z,4560
2018-01-19T10:08:31.267Z,4624
2018-01-19T10:09:31.002Z,4620
2018-01-19T10:10:31.248Z,4648
2018-01-19T10:11:31.490Z,4780
2018-01-19T10:12:31.245Z,4712
2018-01-19T10:13:30.968Z,4560
2018-01-19T10:14:31.477Z,4356
2018-01-19T10:15:30.948Z,4472
2018-01-19T10:16:31.248Z,4584
2018-01-19T10:17:31.451Z,4516
2018-01-19T10:18:31.435Z,4576
2018-01-19T10:19:31.196Z,4520
2018-01-19T10:20:31.186Z,4392
2018-01-19T10:21:30.914Z,4352
2018-01-19T10:22:31.418Z,4392
2018-01-19T10:52:55.588Z,3368
2018-01-19T10:53:55.314Z,3508
2018-01-19T10:54:55.060Z,3652
2018-01-19T10:55:55.549Z,3956
2018-01-19T10:56:55.037Z,4484
2018-01-19T10:57:55.043Z,4608
2018-01-19T10:58:55.159Z,4440
2018-01-19T10:59:55.564Z,4820
2018-01-19T11:00:55.492Z,4928
2018-01-19T11:01:55.235Z,5112
2018-01-19T11:02:55.219Z,5344
2018-01-19T11:03:55.232Z,5788
2018-01-19T11:04:55.217Z,5904
2018-01-19T11:05:55.218Z,5948
2018-01-19T11:06:55.444Z,5644
2018-01-19T11:07:55.983Z,5320
2018-01-19T11:08:54.941Z,4960
2018-01-19T11:09:55.188Z,4896
2018-01-19T11:10:55.414Z,4832
2018-01-19T11:11:55.178Z,4824
2018-01-19T11:12:55.421Z,4736
2018-01-19T11:13:54.908Z,4848
2018-01-19T11:14:55.159Z,4956
2018-01-19T11:15:55.133Z,4680
2018-01-19T11:16:55.129Z,4636
2018-01-19T11:17:55.122Z,4652
2018-01-19T11:18:54.874Z,4588
2018-01-19T11:19:55.127Z,4580
2018-01-19T11:20:55.116Z,4600
2018-01-19T11:21:54.847Z,4880
2018-01-19T11:22:54.837Z,4920
2018-01-19T11:23:55.087Z,5004
2018-01-19T11:24:55.088Z,4864
2018-01-19T11:25:55.326Z,4824
2018-01-19T11:26:55.379Z,5692
2018-01-19T11:27:54.833Z,5888
2018-01-19T11:28:54.822Z,5744
2018-01-19T11:29:54.798Z,5668
2018-01-19T11:30:55.056Z,5704
2018-01-19T11:31:55.051Z,5724
2018-01-19T11:32:54.783Z,6032
2018-01-19T11:33:55.291Z,6024
2018-01-19T11:34:55.298Z,5812
2018-01-19T11:35:55.029Z,5692
2018-01-19T11:36:54.762Z,5456
2018-01-19T11:37:55.025Z,5060
2018-01-19T11:38:55.014Z,5112
2018-01-19T11:39:54.752Z,5460
2018-01-19T11:40:55.000Z,5504
2018-01-19T11:41:54.744Z,5344
2018-01-19T11:42:54.482Z,4888
2018-01-19T11:43:54.481Z,4552
2018-01-19T11:44:55.240Z,4452
2018-01-19T11:45:54.985Z,4852
2018-01-19T11:46:55.224Z,5324
2018-01-19T11:47:54.978Z,5556
2018-01-19T11:48:54.972Z,5440
2018-01-19T11:49:54.966Z,5452
2018-01-19T11:50:54.974Z,5316
2018-01-19T11:51:54.696Z,5060
2018-01-19T11:52:55.219Z,5148
2018-01-19T11:53:54.988Z,5104
2018-01-19T11:54:54.684Z,5272
2018-01-19T11:55:54.732Z,5140
2018-01-19T11:56:54.674Z,4704
2018-01-19T11:57:54.742Z,4360
2018-01-19T11:58:54.674Z,4276
2018-01-19T11:59:54.399Z,4264
2018-01-19T12:00:55.160Z,4120
2018-01-19T12:01:54.903Z,3836
2018-01-19T12:02:55.160Z,3544
2018-01-19T12:03:54.628Z,3544
2018-01-19T12:04:54.899Z,3636
2018-01-19T12:05:55.185Z,3520
2018-01-19T12:06:54.362Z,3404
2018-01-19T12:07:54.857Z,3576
2018-01-19T12:08:54.862Z,3952
2018-01-19T12:09:55.104Z,4368
2018-01-19T12:10:54.598Z,4344
2018-01-19T12:11:54.585Z,4272
2018-01-19T12:12:54.839Z,4220
2018-01-19T12:13:55.083Z,4252
2018-01-19T12:14:54.570Z,4116
2018-01-19T12:15:54.826Z,4008
2018-01-19T12:16:54.809Z,3780
2018-01-19T12:17:54.820Z,3584
2018-01-19T12:18:54.811Z,3596
2018-01-19T12:19:54.791Z,3748
2018-01-19T12:20:54.542Z,3772
2018-01-19T12:21:54.792Z,3796
2018-01-19T12:22:54.783Z,4064
2018-01-19T12:23:55.022Z,4208
2018-01-19T12:24:54.768Z,4404
2018-01-19T12:25:54.262Z,4620
2018-01-19T12:26:54.801Z,5012
2018-01-19T12:27:55.001Z,5380
2018-01-19T12:28:54.743Z,5644
2018-01-19T12:29:54.992Z,5604
2018-01-19T12:30:54.230Z,5412
2018-01-19T12:31:54.982Z,5220
2018-01-19T12:32:54.469Z,5064
2018-01-19T12:33:54.468Z,4972
2018-01-19T12:34:54.713Z,5448
2018-01-19T12:35:54.704Z,5576
2018-01-19T12:36:54.703Z,5780
2018-01-19T12:37:55.651Z,5744
2018-01-19T12:38:54.963Z,5964
2018-01-19T12:39:54.432Z,6204
2018-01-19T12:40:54.433Z,6352
2018-01-19T12:41:54.666Z,6308
2018-01-19T12:42:54.923Z,6248
2018-01-19T12:43:54.717Z,6272
2018-01-19T12:44:54.451Z,6096
2018-01-19T12:45:54.649Z,6356
2018-01-19T12:46:54.660Z,6380
2018-01-19T12:47:54.403Z,6364
2018-01-19T12:48:54.138Z,6304
2018-01-19T12:49:54.397Z,6112
2018-01-19T12:50:54.391Z,6140
2018-01-19T12:51:54.378Z,6004
2018-01-19T12:52:54.117Z,5696
2018-01-19T12:53:54.362Z,5724
2018-01-19T12:54:54.359Z,5708
2018-01-19T12:55:54.618Z,5404
2018-01-19T12:56:54.598Z,5372
2018-01-19T12:57:54.345Z,5240
2018-01-19T12:58:54.344Z,4948
2018-01-19T12:59:54.342Z,5284
2018-01-19T13:00:54.836Z,5124
2018-01-19T13:01:54.380Z,5152
2018-01-19T13:02:54.567Z,5252
2018-01-19T13:03:54.562Z,5396
2018-01-19T13:04:54.303Z,5424
2018-01-19T13:05:54.877Z,5700
2018-01-19T13:06:54.600Z,5460
2018-01-19T13:07:54.285Z,6220
2018-01-19T13:08:54.365Z,6084
2018-01-19T13:09:54.536Z,6560
2018-01-19T13:10:54.518Z,6792
2018-01-19T13:11:54.541Z,6852
2018-01-19T13:12:54.537Z,6924
2018-01-19T13:13:54.827Z,7064
2018-01-19T13:14:54.567Z,7256
2018-01-19T13:15:54.515Z,7416
2018-01-19T13:16:54.510Z,7156
2018-01-19T13:17:54.489Z,7008
2018-01-19T13:18:54.482Z,6920
2018-01-19T13:19:54.735Z,6412
2018-01-19T13:20:54.479Z,5836
2018-01-19T13:21:54.484Z,5756
2018-01-19T13:22:54.241Z,5392
2018-01-19T13:23:55.003Z,5312
2018-01-19T13:24:54.210Z,6016
2018-01-19T13:25:54.700Z,5700
2018-01-19T13:26:54.203Z,6196
2018-01-19T13:27:54.203Z,6184
2018-01-19T13:28:54.441Z,5644
2018-01-19T13:29:54.186Z,5960
2018-01-19T13:30:54.699Z,6004
2018-01-19T13:31:54.461Z,5568
2018-01-19T13:32:54.228Z,5280
2018-01-19T13:33:54.717Z,5380
2018-01-19T13:34:54.536Z,5856
2018-01-19T13:35:54.270Z,5940
2018-01-19T13:36:53.902Z,6020
2018-01-19T13:37:55.289Z,5908
2018-01-19T13:38:53.882Z,5256
2018-01-19T13:39:54.171Z,5332
2018-01-19T13:40:54.380Z,5496
2018-01-19T13:41:54.386Z,5756
2018-01-19T13:42:53.871Z,6148
2018-01-19T13:43:53.904Z,6072
2018-01-19T13:44:53.866Z,5820
2018-01-19T13:45:53.848Z,5652
2018-01-19T13:46:54.346Z,5376
2018-01-19T13:47:54.340Z,5148
2018-01-19T13:48:54.395Z,5028
2018-01-19T13:49:54.338Z,5180
2018-01-19T13:50:53.830Z,4816
2018-01-19T13:51:53.821Z,4324
2018-01-19T13:52:54.077Z,4128
2018-01-19T13:53:53.802Z,3844
2018-01-19T13:54:54.303Z,3764
2018-01-19T13:55:54.061Z,3784
2018-01-19T13:56:54.296Z,3896
2018-01-19T13:57:54.294Z,4072
2018-01-19T13:58:54.289Z,4244
2018-01-19T13:59:54.545Z,4320
2018-01-19T14:00:54.282Z,4300
2018-01-19T14:01:54.518Z,4340
2018-01-19T14:02:54.280Z,4256
2018-01-19T14:03:54.271Z,4140
2018-01-19T14:04:54.258Z,3896
2018-01-19T14:05:54.254Z,3748
2018-01-19T14:06:54.053Z,3816
2018-01-19T14:07:54.006Z,3908
2018-01-19T14:08:54.235Z,3904
2018-01-19T14:09:54.535Z,3752
2018-01-19T14:10:53.971Z,3400
2018-01-19T14:11:54.216Z,3112
2018-01-19T14:12:53.959Z,3000
2018-01-19T14:13:54.211Z,2936
2018-01-19T14:14:54.210Z,2872
2018-01-19T14:15:54.205Z,2936
2018-01-19T14:16:53.974Z,2924
2018-01-19T14:17:54.450Z,2808
2018-01-19T14:18:53.934Z,2648
2018-01-19T14:19:54.205Z,2564
2018-01-19T14:20:54.172Z,2552
2018-01-19T14:21:54.418Z,2528
2018-01-19T14:22:54.164Z,2368
2018-01-19T14:23:54.148Z,2196
2018-01-19T14:24:54.155Z,2004
2018-01-19T14:25:54.138Z,1828
2018-01-19T14:26:54.394Z,1696
2018-01-19T14:27:53.630Z,1592
2018-01-19T14:28:54.372Z,1476
2018-01-19T14:29:53.613Z,1380
2018-01-19T14:30:53.874Z,1316